createdAt,value
2023-05-13T00:00:21.164Z,6.50
2023-05-13T00:02:49.718Z,7.15
2023-05-13T00:05:18.213Z,6.65
2023-05-13T00:07:46.583Z,5.53
2023-05-13T00:10:16.593Z,6.05
2023-05-13T00:12:44.972Z,6.10
2023-05-13T00:15:13.470Z,6.03
2023-05-13T00:17:43.275Z,5.55
2023-05-13T00:20:11.859Z,5.50
2023-05-13T00:22:40.094Z,5.20
2023-05-13T00:25:08.911Z,5.13
2023-05-13T00:27:37.279Z,5.00
2023-05-13T00:30:06.161Z,5.18
2023-05-13T00:32:34.492Z,5.30
2023-05-13T00:35:04.429Z,5.38
2023-05-13T00:37:32.781Z,5.60
2023-05-13T00:40:01.260Z,4.43
2023-05-13T00:42:29.658Z,4.93
2023-05-13T00:44:58.009Z,5.72
2023-05-13T00:47:26.416Z,5.97
2023-05-13T00:49:54.725Z,5.45
2023-05-13T00:52:24.541Z,5.70
2023-05-13T00:54:52.810Z,5.80
2023-05-13T00:57:21.301Z,5.88
2023-05-13T00:59:49.574Z,5.72
2023-05-13T01:02:24.785Z,6.07
2023-05-13T01:05:05.524Z,6.50
2023-05-13T01:07:42.312Z,6.10
2023-05-13T01:10:16.723Z,5.80
2023-05-13T01:12:47.511Z,6.90
2023-05-13T01:15:18.396Z,5.72
2023-05-13T01:17:51.729Z,5.60
2023-05-13T01:20:24.111Z,5.60
2023-05-13T01:22:54.607Z,5.40
2023-05-13T01:25:22.971Z,5.65
2023-05-13T01:27:51.593Z,6.00
2023-05-13T01:30:20.725Z,5.65
2023-05-13T01:32:50.023Z,5.75
2023-05-13T01:35:19.147Z,6.18
2023-05-13T01:37:48.893Z,6.60
2023-05-13T01:40:31.618Z,4.90
2023-05-13T01:43:01.723Z,5.50
2023-05-13T01:45:30.880Z,5.15
2023-05-13T01:47:59.320Z,6.03
2023-05-13T01:50:27.731Z,5.60
2023-05-13T01:52:57.348Z,5.82
2023-05-13T01:55:27.191Z,5.65
2023-05-13T01:57:55.628Z,5.93
2023-05-13T02:00:24.249Z,5.03
2023-05-13T02:02:52.594Z,5.43
2023-05-13T02:05:21.050Z,5.85
2023-05-13T02:07:49.334Z,5.55
2023-05-13T02:10:17.828Z,5.38
2023-05-13T02:12:47.971Z,5.30
2023-05-13T02:15:16.366Z,5.80
2023-05-13T02:17:44.748Z,6.05
2023-05-13T02:20:15.361Z,6.00
2023-05-13T02:22:43.604Z,6.25
2023-05-13T02:25:12.235Z,5.38
2023-05-13T02:27:40.558Z,5.18
2023-05-13T02:30:11.212Z,5.03
2023-05-13T02:32:42.763Z,5.40
2023-05-13T02:35:11.533Z,6.28
2023-05-13T02:37:39.764Z,6.70
2023-05-13T02:40:09.345Z,6.20
2023-05-13T02:42:37.612Z,6.07
2023-05-13T02:45:06.364Z,6.13
2023-05-13T02:47:36.051Z,6.35
2023-05-13T02:50:08.043Z,6.00
2023-05-13T02:52:36.486Z,5.72
2023-05-13T02:55:04.911Z,5.47
2023-05-13T02:57:33.363Z,5.43
2023-05-13T03:00:01.632Z,5.40
2023-05-13T03:02:30.051Z,6.38
2023-05-13T03:04:59.794Z,5.50
2023-05-13T03:07:28.136Z,5.75
2023-05-13T03:09:56.509Z,6.00
2023-05-13T03:12:25.189Z,6.25
2023-05-13T03:14:53.464Z,7.28
2023-05-13T03:17:21.716Z,5.82
2023-05-13T03:19:50.061Z,6.63
2023-05-13T03:22:19.833Z,6.30
2023-05-13T03:24:48.151Z,6.68
2023-05-13T03:27:16.426Z,6.32
2023-05-13T03:29:44.647Z,6.60
2023-05-13T03:32:13.020Z,6.40
2023-05-13T03:34:41.328Z,6.10
2023-05-13T03:37:10.014Z,6.88
2023-05-13T03:39:39.664Z,6.68
2023-05-13T03:42:08.519Z,6.47
2023-05-13T03:44:37.012Z,6.75
2023-05-13T03:47:05.588Z,5.90
2023-05-13T03:49:34.026Z,6.70
2023-05-13T03:52:02.302Z,6.40
2023-05-13T03:54:30.577Z,6.40
2023-05-13T03:57:00.291Z,7.63
2023-05-13T03:59:28.508Z,9.90
2023-05-13T04:01:56.775Z,8.25
2023-05-13T04:04:25.206Z,7.20
2023-05-13T04:06:53.574Z,7.57
2023-05-13T04:09:21.851Z,7.03
2023-05-13T04:11:50.106Z,8.40
2023-05-13T04:14:20.096Z,9.07
2023-05-13T04:16:48.645Z,7.43
2023-05-13T04:19:17.553Z,9.13
2023-05-13T04:21:45.781Z,12.30
2023-05-13T04:24:14.018Z,10.30
2023-05-13T04:26:42.278Z,15.65
2023-05-13T04:29:10.808Z,19.50
2023-05-13T04:31:40.530Z,28.25
2023-05-13T04:34:08.778Z,28.20
2023-05-13T04:36:37.152Z,16.30
2023-05-13T04:39:05.552Z,11.73
2023-05-13T04:41:33.819Z,7.72
2023-05-13T04:44:02.594Z,6.07
2023-05-13T04:46:30.940Z,6.32
2023-05-13T04:49:00.652Z,5.85
2023-05-13T04:51:29.290Z,5.75
2023-05-13T04:53:57.889Z,5.40
2023-05-13T04:56:26.196Z,5.75
2023-05-13T04:58:54.438Z,5.50
2023-05-13T05:01:22.636Z,4.70
2023-05-13T05:03:50.909Z,5.57
2023-05-13T05:06:21.918Z,5.47
2023-05-13T05:08:50.153Z,4.23
2023-05-13T05:11:18.372Z,5.47
2023-05-13T05:13:46.703Z,6.00
2023-05-13T05:16:15.497Z,4.93
2023-05-13T05:18:44.261Z,6.00
2023-05-13T05:21:12.849Z,6.07
2023-05-13T05:23:42.480Z,5.70
2023-05-13T05:26:12.414Z,6.50
2023-05-13T05:28:43.135Z,5.80
2023-05-13T05:31:11.414Z,5.23
2023-05-13T05:33:40.011Z,4.77
2023-05-13T05:36:09.148Z,5.03
2023-05-13T05:38:37.494Z,5.23
2023-05-13T05:41:07.488Z,4.60
2023-05-13T05:43:35.703Z,4.90
2023-05-13T05:46:05.174Z,3.93
2023-05-13T05:48:34.807Z,4.90
2023-05-13T05:51:03.352Z,4.20
2023-05-13T05:53:31.791Z,4.43
2023-05-13T05:56:00.047Z,5.30
2023-05-13T05:58:29.772Z,5.00
2023-05-13T06:00:58.451Z,4.43
2023-05-13T06:03:29.376Z,4.17
2023-05-13T06:05:57.715Z,3.90
2023-05-13T06:08:30.123Z,4.30
2023-05-13T06:10:59.513Z,3.40
2023-05-13T06:13:29.151Z,4.17
2023-05-13T06:15:57.435Z,4.20
2023-05-13T06:18:27.016Z,4.00
2023-05-13T06:20:55.316Z,5.23
2023-05-13T06:23:23.515Z,3.20
2023-05-13T06:25:51.827Z,3.03
2023-05-13T06:28:20.159Z,3.07
2023-05-13T06:30:49.803Z,3.00
2023-05-13T06:33:18.059Z,2.73
2023-05-13T06:35:49.475Z,3.40
2023-05-13T06:38:18.827Z,3.20
2023-05-13T06:40:47.181Z,2.60
2023-05-13T06:43:16.575Z,2.87
2023-05-13T06:45:44.883Z,3.33
2023-05-13T06:48:15.220Z,3.40
2023-05-13T06:50:43.571Z,2.43
2023-05-13T06:53:12.635Z,2.40
2023-05-13T06:55:42.786Z,2.70
2023-05-13T06:58:11.570Z,2.80
2023-05-13T07:00:41.259Z,2.43
2023-05-13T07:03:09.794Z,2.23
2023-05-13T07:05:40.126Z,2.30
2023-05-13T07:08:09.053Z,2.53
2023-05-13T07:10:38.004Z,2.27
2023-05-13T07:13:06.595Z,2.43
2023-05-13T07:15:35.005Z,2.53
2023-05-13T07:18:03.284Z,2.20
2023-05-13T07:20:31.519Z,2.27
2023-05-13T07:23:01.193Z,2.43
2023-05-13T07:25:29.450Z,2.20
2023-05-13T07:27:57.809Z,2.27
2023-05-13T07:30:26.127Z,3.07
2023-05-13T07:32:54.522Z,2.67
2023-05-13T07:35:23.717Z,2.80
2023-05-13T07:37:52.385Z,2.63
2023-05-13T07:40:22.292Z,2.90
2023-05-13T07:42:50.644Z,3.10
2023-05-13T07:45:19.213Z,3.27
2023-05-13T07:47:47.712Z,3.50
2023-05-13T07:50:16.035Z,3.33
2023-05-13T07:52:44.405Z,3.03
2023-05-13T07:55:13.150Z,3.03
2023-05-13T07:57:42.766Z,2.90
2023-05-13T08:00:11.917Z,3.70
2023-05-13T08:02:40.470Z,3.20
2023-05-13T08:05:09.487Z,3.77
2023-05-13T08:07:37.721Z,3.50
2023-05-13T08:10:07.021Z,3.83
2023-05-13T08:12:38.097Z,4.20
2023-05-13T08:15:09.477Z,3.10
2023-05-13T08:17:40.645Z,3.90
2023-05-13T08:20:11.370Z,3.83
2023-05-13T08:22:39.724Z,16.60
2023-05-13T08:25:08.374Z,6.43
2023-05-13T08:27:36.717Z,4.10
2023-05-13T08:30:08.179Z,3.73
2023-05-13T08:32:37.900Z,3.13
2023-05-13T08:35:06.824Z,3.87
2023-05-13T08:37:35.207Z,4.27
2023-05-13T08:40:04.503Z,3.80
2023-05-13T08:42:34.450Z,4.63
2023-05-13T08:45:06.260Z,6.07
2023-05-13T08:47:45.063Z,5.80
2023-05-13T08:50:14.421Z,4.07
2023-05-13T08:52:44.571Z,4.90
2023-05-13T08:55:13.631Z,5.40
2023-05-13T08:57:41.865Z,5.20
2023-05-13T09:00:10.864Z,5.90
2023-05-13T09:02:40.586Z,6.70
2023-05-13T09:05:10.397Z,6.30
2023-05-13T09:07:40.658Z,5.97
2023-05-13T09:10:10.424Z,7.77
2023-05-13T09:12:46.600Z,6.97
2023-05-13T09:15:16.943Z,6.60
2023-05-13T09:17:48.984Z,6.80
2023-05-13T09:20:18.513Z,5.57
2023-05-13T09:22:47.659Z,4.60
2023-05-13T09:25:19.696Z,5.70
2023-05-13T09:27:50.324Z,5.27
2023-05-13T09:30:18.574Z,4.97
2023-05-13T09:33:06.594Z,5.93
2023-05-13T09:35:36.150Z,5.30
2023-05-13T09:38:13.993Z,5.17
2023-05-13T09:40:42.346Z,4.60
2023-05-13T09:43:10.544Z,5.60
2023-05-13T09:45:38.793Z,5.07
2023-05-13T09:48:11.345Z,5.23
2023-05-13T09:50:49.419Z,5.73
2023-05-13T09:53:19.122Z,5.80
2023-05-13T09:55:48.148Z,5.83
2023-05-13T09:58:16.866Z,5.27
2023-05-13T10:00:45.633Z,4.90
2023-05-13T10:03:16.279Z,4.97
2023-05-13T10:05:45.097Z,4.40
2023-05-13T10:08:14.744Z,5.40
2023-05-13T10:10:45.780Z,5.73
2023-05-13T10:13:17.388Z,5.67
2023-05-13T10:15:52.410Z,6.53
2023-05-13T10:18:24.028Z,7.00
2023-05-13T10:20:54.203Z,6.23
2023-05-13T10:23:24.488Z,7.03
2023-05-13T10:25:54.815Z,7.07
2023-05-13T10:28:26.548Z,7.70
2023-05-13T10:30:54.903Z,7.37
2023-05-13T10:33:24.953Z,7.27
2023-05-13T10:36:07.977Z,6.43
2023-05-13T10:38:52.056Z,4.53
2023-05-13T10:41:58.017Z,2.90
2023-05-13T10:44:26.321Z,3.35
2023-05-13T10:46:57.156Z,3.30
2023-05-13T10:49:34.882Z,3.00
2023-05-13T10:52:06.905Z,3.85
2023-05-13T10:54:40.573Z,4.20
2023-05-13T10:57:09.267Z,4.07
2023-05-13T10:59:38.956Z,4.55
2023-05-13T11:02:22.867Z,4.38
2023-05-13T11:05:02.749Z,4.38
2023-05-13T11:07:31.182Z,5.05
2023-05-13T11:10:02.164Z,5.10
2023-05-13T11:12:30.595Z,6.03
2023-05-13T11:14:59.509Z,6.22
2023-05-13T11:17:27.866Z,6.10
2023-05-13T11:19:57.519Z,6.00
2023-05-13T11:22:27.678Z,7.20
2023-05-13T11:25:07.134Z,6.27
2023-05-13T11:27:39.796Z,5.80
2023-05-13T11:30:09.582Z,7.47
2023-05-13T11:32:56.210Z,6.57
2023-05-13T11:35:26.458Z,6.63
2023-05-13T11:37:58.372Z,6.40
2023-05-13T11:40:33.230Z,5.90
2023-05-13T11:43:02.333Z,6.17
2023-05-13T11:45:31.273Z,6.00
2023-05-13T11:47:59.714Z,6.20
2023-05-13T11:50:29.967Z,6.30
2023-05-13T11:53:01.167Z,5.93
2023-05-13T11:55:31.233Z,5.97
2023-05-13T11:58:00.222Z,5.93
2023-05-13T12:00:29.657Z,5.50
2023-05-13T12:02:58.728Z,5.90
2023-05-13T12:05:27.760Z,5.33
2023-05-13T12:08:00.015Z,5.57
2023-05-13T12:10:28.381Z,5.93
2023-05-13T12:12:56.717Z,5.43
2023-05-13T12:15:25.533Z,5.30
2023-05-13T12:17:54.904Z,5.10
2023-05-13T12:20:24.401Z,5.70
2023-05-13T12:22:54.634Z,6.20
2023-05-13T12:25:42.110Z,6.43
2023-05-13T12:28:12.284Z,7.73
2023-05-13T12:30:42.510Z,6.87
2023-05-13T12:33:15.931Z,6.00
2023-05-13T12:35:48.834Z,5.27
2023-05-13T12:38:18.992Z,5.30
2023-05-13T12:40:49.764Z,5.30
2023-05-13T12:43:22.055Z,4.80
2023-05-13T12:45:55.140Z,5.10
2023-05-13T12:48:26.099Z,5.40
2023-05-13T12:50:54.444Z,5.10
2023-05-13T12:53:22.684Z,5.47
2023-05-13T12:55:52.685Z,6.07
2023-05-13T12:58:20.928Z,5.50
2023-05-13T13:00:49.332Z,5.90
2023-05-13T13:03:17.622Z,5.50
2023-05-13T13:05:46.805Z,5.13
2023-05-13T13:08:15.160Z,4.37
2023-05-13T13:10:43.401Z,4.93
2023-05-13T13:13:13.186Z,4.57
2023-05-13T13:15:41.453Z,5.87
2023-05-13T13:18:09.817Z,4.13
2023-05-13T13:20:38.589Z,4.33
2023-05-13T13:23:12.947Z,3.93
2023-05-13T13:25:44.714Z,3.80
2023-05-13T13:28:14.368Z,3.83
2023-05-13T13:30:46.508Z,3.90
2023-05-13T13:33:16.122Z,3.20
2023-05-13T13:35:45.123Z,2.77
2023-05-13T13:38:13.382Z,3.17
2023-05-13T13:40:41.611Z,3.23
2023-05-13T13:43:10.320Z,3.10
2023-05-13T13:45:40.675Z,3.10
2023-05-13T13:48:09.020Z,3.23
2023-05-13T13:50:38.584Z,3.47
2023-05-13T13:53:09.860Z,3.17
2023-05-13T13:55:38.075Z,3.53
2023-05-13T13:58:11.925Z,3.30
2023-05-13T14:00:41.608Z,3.43
2023-05-13T14:03:09.993Z,4.23
2023-05-13T14:05:38.354Z,3.60
2023-05-13T14:08:07.068Z,3.47
2023-05-13T14:10:35.381Z,4.07
2023-05-13T14:13:03.757Z,3.93
2023-05-13T14:15:32.079Z,3.60
2023-05-13T14:18:01.803Z,3.30
2023-05-13T14:20:30.158Z,3.80
2023-05-13T14:23:01.878Z,2.90
2023-05-13T14:25:34.051Z,2.40
2023-05-13T14:28:02.363Z,2.20
2023-05-13T14:30:30.677Z,2.33
2023-05-13T14:33:00.668Z,2.60
2023-05-13T14:35:30.447Z,2.35
2023-05-13T14:38:01.584Z,2.25
2023-05-13T14:40:30.717Z,2.05
2023-05-13T14:43:02.310Z,2.30
2023-05-13T14:45:30.849Z,2.67
2023-05-13T14:47:59.148Z,2.50
2023-05-13T14:50:27.479Z,2.00
2023-05-13T14:52:57.104Z,2.50
2023-05-13T14:55:25.382Z,2.00
2023-05-13T14:57:53.748Z,2.30
2023-05-13T15:00:22.433Z,2.23
2023-05-13T15:02:50.931Z,2.67
2023-05-13T15:05:20.738Z,2.70
2023-05-13T15:07:49.142Z,2.53
2023-05-13T15:10:18.990Z,2.60
2023-05-13T15:12:59.240Z,2.00
2023-05-13T15:15:27.513Z,2.13
2023-05-13T15:17:55.939Z,2.63
2023-05-13T15:20:24.741Z,2.30
2023-05-13T15:22:53.025Z,2.30
2023-05-13T15:25:26.011Z,2.40
2023-05-13T15:27:54.568Z,3.10
2023-05-13T15:30:22.952Z,3.13
2023-05-13T15:32:51.484Z,3.10
2023-05-13T15:35:19.739Z,3.20
2023-05-13T15:37:47.975Z,4.40
2023-05-13T15:40:16.277Z,3.73
2023-05-13T15:42:45.898Z,4.20
2023-05-13T15:45:14.206Z,3.63
2023-05-13T15:47:42.553Z,4.27
2023-05-13T15:50:12.028Z,4.30
2023-05-13T15:52:40.324Z,3.90
2023-05-13T15:55:09.053Z,4.23
2023-05-13T15:57:40.947Z,3.67
2023-05-13T16:00:12.223Z,3.50
2023-05-13T16:02:41.514Z,3.43
2023-05-13T16:05:11.965Z,3.67
2023-05-13T16:07:40.219Z,3.80
2023-05-13T16:10:08.832Z,3.40
2023-05-13T16:12:37.285Z,3.50
2023-05-13T16:15:06.359Z,4.33
2023-05-13T16:17:39.174Z,3.63
2023-05-13T16:20:10.856Z,4.30
2023-05-13T16:22:40.241Z,3.50
2023-05-13T16:25:10.326Z,4.07
2023-05-13T16:27:40.035Z,3.60
2023-05-13T16:30:10.567Z,3.47
2023-05-13T16:32:40.657Z,3.70
2023-05-13T16:35:11.702Z,3.53
2023-05-13T16:37:40.979Z,4.10
2023-05-13T16:40:10.626Z,4.27
2023-05-13T16:42:38.936Z,4.17
2023-05-13T16:45:08.510Z,3.63
2023-05-13T16:47:36.755Z,4.20
2023-05-13T16:50:08.559Z,4.30
2023-05-13T16:52:39.577Z,3.80
2023-05-13T16:55:08.814Z,4.20
2023-05-13T16:57:37.142Z,4.13
2023-05-13T17:00:06.267Z,4.50
2023-05-13T17:02:37.566Z,4.30
2023-05-13T17:05:08.232Z,4.77
2023-05-13T17:07:36.508Z,4.30
2023-05-13T17:10:04.996Z,5.03
2023-05-13T17:12:33.551Z,5.17
2023-05-13T17:15:02.194Z,5.10
2023-05-13T17:17:30.547Z,4.70
2023-05-13T17:19:58.838Z,5.00
2023-05-13T17:22:28.555Z,4.30
2023-05-13T17:24:57.200Z,4.27
2023-05-13T17:27:25.628Z,4.43
2023-05-13T17:29:54.993Z,17.00
2023-05-13T17:32:23.463Z,4.90
2023-05-13T17:34:51.777Z,4.93
2023-05-13T17:37:19.985Z,5.70
2023-05-13T17:39:50.349Z,4.65
2023-05-13T17:42:18.673Z,5.07
2023-05-13T17:44:46.889Z,5.03
2023-05-13T17:47:15.122Z,8.13
2023-05-13T17:49:43.336Z,10.53
2023-05-13T17:52:11.656Z,11.90
2023-05-13T17:54:40.069Z,7.95
2023-05-13T17:57:15.904Z,12.38
2023-05-13T17:59:47.252Z,16.90
2023-05-13T18:02:15.688Z,21.90
2023-05-13T18:04:43.982Z,14.85
2023-05-13T18:07:15.340Z,11.20
2023-05-13T18:09:44.494Z,11.77
2023-05-13T18:12:12.752Z,8.30
2023-05-13T18:14:42.374Z,8.07
2023-05-13T18:17:10.669Z,6.50
2023-05-13T18:19:38.984Z,6.90
2023-05-13T18:22:09.348Z,5.40
2023-05-13T18:24:38.428Z,6.13
2023-05-13T18:27:07.596Z,6.05
2023-05-13T18:29:48.253Z,6.75
2023-05-13T18:32:20.843Z,6.35
2023-05-13T18:34:49.148Z,5.95
2023-05-13T18:37:18.492Z,6.40
2023-05-13T18:39:49.822Z,5.28
2023-05-13T18:42:20.968Z,5.55
2023-05-13T18:44:49.177Z,5.90
2023-05-13T18:47:18.931Z,8.75
2023-05-13T18:49:47.289Z,9.23
2023-05-13T18:52:15.622Z,7.90
2023-05-13T18:54:43.861Z,6.88
2023-05-13T18:57:15.113Z,6.70
2023-05-13T18:59:43.375Z,6.53
2023-05-13T19:02:14.717Z,7.32
2023-05-13T19:04:44.571Z,8.25
2023-05-13T19:07:12.921Z,7.50
2023-05-13T19:09:41.156Z,8.18
2023-05-13T19:12:09.954Z,8.50
2023-05-13T19:14:38.226Z,8.00
2023-05-13T19:17:06.939Z,8.60
2023-05-13T19:19:35.183Z,8.23
2023-05-13T19:22:04.993Z,7.90
2023-05-13T19:24:33.333Z,8.25
2023-05-13T19:27:02.153Z,8.45
2023-05-13T19:29:33.001Z,7.90
2023-05-13T19:32:01.213Z,8.68
2023-05-13T19:34:29.488Z,8.50
2023-05-13T19:37:09.692Z,8.15
2023-05-13T19:39:40.044Z,8.65
2023-05-13T19:42:08.661Z,7.40
2023-05-13T19:44:37.065Z,7.65
2023-05-13T19:47:06.463Z,7.28
2023-05-13T19:49:34.793Z,8.52
2023-05-13T19:52:03.378Z,7.65
2023-05-13T19:54:31.597Z,8.50
2023-05-13T19:57:04.282Z,8.40
2023-05-13T19:59:32.572Z,7.72
2023-05-13T20:02:01.138Z,8.35
2023-05-13T20:04:38.330Z,7.55
2023-05-13T20:07:08.019Z,8.35
2023-05-13T20:09:37.626Z,8.20
2023-05-13T20:12:07.902Z,8.68
2023-05-13T20:14:49.503Z,8.15
2023-05-13T20:17:18.958Z,8.68
2023-05-13T20:19:48.447Z,8.68
2023-05-13T20:22:17.438Z,8.40
2023-05-13T20:24:46.736Z,7.28
2023-05-13T20:27:17.320Z,8.38
2023-05-13T20:29:47.002Z,7.85
2023-05-13T20:32:18.411Z,8.48
2023-05-13T20:34:46.686Z,9.50
2023-05-13T20:37:16.815Z,8.60
2023-05-13T20:39:45.089Z,7.85
2023-05-13T20:42:13.367Z,9.23
2023-05-13T20:44:44.288Z,8.98
2023-05-13T20:47:12.571Z,8.23
2023-05-13T20:49:43.873Z,9.02
2023-05-13T20:52:12.548Z,8.25
2023-05-13T20:54:40.816Z,7.82
2023-05-13T20:57:09.052Z,9.15
2023-05-13T20:59:37.456Z,8.80
2023-05-13T21:02:07.710Z,9.05
2023-05-13T21:04:36.196Z,8.38
2023-05-13T21:07:06.778Z,8.35
2023-05-13T21:09:35.060Z,8.40
2023-05-13T21:12:03.503Z,8.73
2023-05-13T21:14:31.722Z,8.70
2023-05-13T21:17:03.001Z,8.23
2023-05-13T21:19:32.686Z,7.97
2023-05-13T21:22:02.284Z,8.10
2023-05-13T21:24:30.503Z,7.72
2023-05-13T21:26:58.799Z,7.78
2023-05-13T21:29:27.040Z,8.30
2023-05-13T21:31:58.001Z,8.70
2023-05-13T21:34:26.383Z,8.07
2023-05-13T21:36:56.046Z,8.20
2023-05-13T21:39:27.122Z,7.30
2023-05-13T21:41:55.380Z,7.88
2023-05-13T21:44:24.858Z,8.80
2023-05-13T21:46:53.140Z,8.43
2023-05-13T21:49:21.557Z,8.15
2023-05-13T21:51:49.849Z,8.70
2023-05-13T21:54:19.746Z,8.85
2023-05-13T21:56:48.052Z,9.88
2023-05-13T21:59:16.466Z,8.65
2023-05-13T22:01:47.755Z,8.30
2023-05-13T22:04:16.079Z,9.90
2023-05-13T22:06:44.315Z,9.60
2023-05-13T22:09:12.591Z,9.32
2023-05-13T22:11:42.265Z,8.95
2023-05-13T22:14:10.677Z,8.75
2023-05-13T22:16:39.114Z,8.75
2023-05-13T22:19:07.552Z,8.38
2023-05-13T22:21:35.940Z,7.97
2023-05-13T22:24:06.349Z,8.05
2023-05-13T22:26:34.914Z,8.50
2023-05-13T22:29:04.717Z,8.63
2023-05-13T22:31:33.032Z,8.50
2023-05-13T22:34:02.210Z,8.50
2023-05-13T22:36:31.066Z,8.45
2023-05-13T22:38:59.404Z,8.85
2023-05-13T22:41:27.619Z,8.50
2023-05-13T22:43:55.954Z,9.82
2023-05-13T22:46:25.799Z,9.27
2023-05-13T22:48:57.161Z,9.25
2023-05-13T22:51:25.461Z,9.15
2023-05-13T22:53:53.737Z,9.02
2023-05-13T22:56:22.769Z,9.00
2023-05-13T22:58:50.983Z,9.70
2023-05-13T23:01:19.296Z,9.25
2023-05-13T23:03:49.054Z,9.35
2023-05-13T23:06:17.345Z,9.52
2023-05-13T23:08:45.626Z,8.90
2023-05-13T23:11:13.888Z,9.85
2023-05-13T23:13:42.165Z,10.52
2023-05-13T23:16:10.636Z,9.30
2023-05-13T23:18:38.985Z,9.30
2023-05-13T23:21:09.215Z,9.07
2023-05-13T23:23:37.737Z,9.15
2023-05-13T23:26:06.732Z,9.07
2023-05-13T23:28:36.111Z,9.70
2023-05-13T23:31:04.464Z,10.88
2023-05-13T23:33:32.758Z,10.27
2023-05-13T23:36:01.036Z,10.52
2023-05-13T23:38:30.760Z,10.45
2023-05-13T23:40:59.018Z,9.70
2023-05-13T23:43:27.345Z,11.40
2023-05-13T23:45:55.815Z,11.43
2023-05-13T23:48:24.123Z,10.52
2023-05-13T23:50:52.366Z,11.07
2023-05-13T23:53:20.591Z,11.57
2023-05-13T23:55:50.478Z,10.70
2023-05-13T23:58:18.822Z,11.43
